Acomita, New Mexico
Current Conditions -  °F | °C
As of 10:37 PM on Thursday 30 Oct 2014 (Local Time) from KGNT Reporting Station
Clear Clear  
Wind Chill: 46°   Ceiling: Unl
Heat Index: 48°   Visibility: 10mi
Dew Point: 12°   Wind: 5mph
Humidity: 24%   Direction: 170°S
Pressure: 30.36"   Gusts: NA
Location:  35.0806°N, 107.597°W
Report Text: KGNT 310437Z AUTO 17004KT 10SM CLR 09/M11 A3036 RMK AO2
Loading
Personal Weather Stations






























Interactive Weather Map
Tropical Storm Tracking
New forecast layout! Learn more

10-Day Weather Forecast

Advertisements
Track Severe Weather on mobile